sensor_id;sensor_type;location;lat;lon;timestamp;P1;durP1;ratioP1;P2;durP2;ratioP2
75971;SDS011;64651;47.540;19.088;2024-03-22T00:02:41;23.73;;;10.97;;
75971;SDS011;64651;47.540;19.088;2024-03-22T00:07:42;23.45;;;10.32;;
75971;SDS011;64651;47.540;19.088;2024-03-22T00:12:43;24.47;;;10.87;;
75971;SDS011;64651;47.540;19.088;2024-03-22T00:17:44;24.67;;;10.55;;
75971;SDS011;64651;47.540;19.088;2024-03-22T00:22:46;25.50;;;10.57;;
75971;SDS011;64651;47.540;19.088;2024-03-22T00:27:47;27.80;;;10.63;;
75971;SDS011;64651;47.540;19.088;2024-03-22T00:32:48;27.83;;;11.10;;
75971;SDS011;64651;47.540;19.088;2024-03-22T00:37:51;24.83;;;9.80;;
75971;SDS011;64651;47.540;19.088;2024-03-22T00:42:52;26.37;;;11.18;;
75971;SDS011;64651;47.540;19.088;2024-03-22T00:47:53;27.65;;;11.50;;
75971;SDS011;64651;47.540;19.088;2024-03-22T00:52:54;22.80;;;10.47;;
75971;SDS011;64651;47.540;19.088;2024-03-22T00:57:58;24.70;;;10.63;;
75971;SDS011;64651;47.540;19.088;2024-03-22T01:02:59;24.90;;;10.80;;
75971;SDS011;64651;47.540;19.088;2024-03-22T01:08:00;24.55;;;10.55;;
75971;SDS011;64651;47.540;19.088;2024-03-22T01:13:02;23.38;;;10.27;;
75971;SDS011;64651;47.540;19.088;2024-03-22T01:18:03;23.93;;;10.90;;
75971;SDS011;64651;47.540;19.088;2024-03-22T01:23:05;21.73;;;11.15;;
75971;SDS011;64651;47.540;19.088;2024-03-22T01:28:06;26.70;;;11.33;;
75971;SDS011;64651;47.540;19.088;2024-03-22T01:33:07;24.90;;;10.98;;
75971;SDS011;64651;47.540;19.088;2024-03-22T01:38:08;23.80;;;10.13;;
75971;SDS011;64651;47.540;19.088;2024-03-22T01:43:09;23.47;;;10.30;;
75971;SDS011;64651;47.540;19.088;2024-03-22T01:48:11;22.58;;;10.63;;
75971;SDS011;64651;47.540;19.088;2024-03-22T01:53:12;26.10;;;10.57;;
75971;SDS011;64651;47.540;19.088;2024-03-22T01:58:13;24.90;;;10.18;;
75971;SDS011;64651;47.540;19.088;2024-03-22T02:03:15;26.52;;;11.18;;
75971;SDS011;64651;47.540;19.088;2024-03-22T02:08:16;27.33;;;11.37;;
75971;SDS011;64651;47.540;19.088;2024-03-22T02:13:17;24.50;;;10.68;;
75971;SDS011;64651;47.540;19.088;2024-03-22T02:18:18;27.27;;;11.43;;
75971;SDS011;64651;47.540;19.088;2024-03-22T02:23:22;25.70;;;11.35;;
75971;SDS011;64651;47.540;19.088;2024-03-22T02:28:44;25.52;;;11.80;;
75971;SDS011;64651;47.540;19.088;2024-03-22T02:33:45;27.37;;;11.47;;
75971;SDS011;64651;47.540;19.088;2024-03-22T02:38:46;25.83;;;12.20;;
75971;SDS011;64651;47.540;19.088;2024-03-22T02:43:48;30.37;;;12.40;;
75971;SDS011;64651;47.540;19.088;2024-03-22T02:48:49;25.37;;;12.00;;
75971;SDS011;64651;47.540;19.088;2024-03-22T02:53:50;28.90;;;12.37;;
75971;SDS011;64651;47.540;19.088;2024-03-22T02:58:51;26.63;;;11.80;;
75971;SDS011;64651;47.540;19.088;2024-03-22T03:03:52;27.10;;;12.55;;
75971;SDS011;64651;47.540;19.088;2024-03-22T03:08:53;27.00;;;12.80;;
75971;SDS011;64651;47.540;19.088;2024-03-22T03:13:55;26.70;;;11.60;;
75971;SDS011;64651;47.540;19.088;2024-03-22T03:18:56;24.87;;;11.82;;
75971;SDS011;64651;47.540;19.088;2024-03-22T03:23:57;24.43;;;12.17;;
75971;SDS011;64651;47.540;19.088;2024-03-22T03:28:58;26.67;;;12.52;;
75971;SDS011;64651;47.540;19.088;2024-03-22T03:33:59;28.57;;;12.63;;
75971;SDS011;64651;47.540;19.088;2024-03-22T03:39:02;27.75;;;12.27;;
75971;SDS011;64651;47.540;19.088;2024-03-22T03:44:04;27.60;;;13.05;;
75971;SDS011;64651;47.540;19.088;2024-03-22T03:49:05;24.50;;;12.07;;
75971;SDS011;64651;47.540;19.088;2024-03-22T03:54:07;26.65;;;13.00;;
75971;SDS011;64651;47.540;19.088;2024-03-22T03:59:08;31.13;;;13.70;;
75971;SDS011;64651;47.540;19.088;2024-03-22T04:04:09;28.85;;;12.65;;
75971;SDS011;64651;47.540;19.088;2024-03-22T04:09:10;26.35;;;11.95;;
75971;SDS011;64651;47.540;19.088;2024-03-22T04:14:12;25.63;;;11.93;;
75971;SDS011;64651;47.540;19.088;2024-03-22T04:19:13;26.58;;;13.35;;
75971;SDS011;64651;47.540;19.088;2024-03-22T04:24:14;27.87;;;12.83;;
75971;SDS011;64651;47.540;19.088;2024-03-22T04:29:15;25.27;;;13.48;;
75971;SDS011;64651;47.540;19.088;2024-03-22T04:34:17;26.15;;;13.65;;
75971;SDS011;64651;47.540;19.088;2024-03-22T04:39:22;27.37;;;14.57;;
75971;SDS011;64651;47.540;19.088;2024-03-22T04:44:25;27.30;;;13.70;;
75971;SDS011;64651;47.540;19.088;2024-03-22T04:49:26;26.10;;;12.17;;
75971;SDS011;64651;47.540;19.088;2024-03-22T04:54:27;27.10;;;13.88;;
75971;SDS011;64651;47.540;19.088;2024-03-22T04:59:28;27.35;;;13.52;;
75971;SDS011;64651;47.540;19.088;2024-03-22T05:04:29;28.40;;;12.53;;
75971;SDS011;64651;47.540;19.088;2024-03-22T05:09:30;25.10;;;13.15;;
75971;SDS011;64651;47.540;19.088;2024-03-22T05:14:32;24.87;;;13.07;;
75971;SDS011;64651;47.540;19.088;2024-03-22T05:19:34;26.55;;;12.90;;
75971;SDS011;64651;47.540;19.088;2024-03-22T05:24:35;24.23;;;12.70;;
75971;SDS011;64651;47.540;19.088;2024-03-22T05:29:36;26.23;;;12.17;;
75971;SDS011;64651;47.540;19.088;2024-03-22T05:34:37;28.15;;;13.45;;
75971;SDS011;64651;47.540;19.088;2024-03-22T05:39:38;26.17;;;13.50;;
75971;SDS011;64651;47.540;19.088;2024-03-22T05:44:41;24.45;;;12.75;;
75971;SDS011;64651;47.540;19.088;2024-03-22T05:49:42;24.02;;;12.30;;
75971;SDS011;64651;47.540;19.088;2024-03-22T05:54:43;22.10;;;11.40;;
75971;SDS011;64651;47.540;19.088;2024-03-22T05:59:45;24.80;;;12.57;;
75971;SDS011;64651;47.540;19.088;2024-03-22T06:04:47;22.93;;;12.30;;
75971;SDS011;64651;47.540;19.088;2024-03-22T06:09:48;20.90;;;11.02;;
75971;SDS011;64651;47.540;19.088;2024-03-22T06:14:50;24.52;;;11.38;;
75971;SDS011;64651;47.540;19.088;2024-03-22T06:19:51;21.30;;;10.87;;
75971;SDS011;64651;47.540;19.088;2024-03-22T06:24:53;24.92;;;12.82;;
75971;SDS011;64651;47.540;19.088;2024-03-22T06:29:54;25.50;;;12.53;;
75971;SDS011;64651;47.540;19.088;2024-03-22T06:34:55;23.58;;;12.27;;
75971;SDS011;64651;47.540;19.088;2024-03-22T06:39:56;22.33;;;11.70;;
75971;SDS011;64651;47.540;19.088;2024-03-22T06:44:59;23.03;;;12.00;;
75971;SDS011;64651;47.540;19.088;2024-03-22T06:50:00;23.33;;;12.50;;
75971;SDS011;64651;47.540;19.088;2024-03-22T06:55:01;25.40;;;12.43;;
75971;SDS011;64651;47.540;19.088;2024-03-22T07:00:04;26.52;;;13.23;;
75971;SDS011;64651;47.540;19.088;2024-03-22T07:05:06;24.10;;;12.73;;
75971;SDS011;64651;47.540;19.088;2024-03-22T07:10:10;23.73;;;13.30;;
75971;SDS011;64651;47.540;19.088;2024-03-22T07:15:12;26.50;;;13.30;;
75971;SDS011;64651;47.540;19.088;2024-03-22T07:20:13;23.33;;;12.70;;
75971;SDS011;64651;47.540;19.088;2024-03-22T07:25:14;22.73;;;12.52;;
75971;SDS011;64651;47.540;19.088;2024-03-22T07:30:15;22.10;;;12.02;;
75971;SDS011;64651;47.540;19.088;2024-03-22T07:35:17;25.20;;;12.37;;
75971;SDS011;64651;47.540;19.088;2024-03-22T07:40:19;24.45;;;12.63;;
75971;SDS011;64651;47.540;19.088;2024-03-22T07:45:20;23.60;;;12.87;;
75971;SDS011;64651;47.540;19.088;2024-03-22T07:50:22;24.15;;;12.90;;
75971;SDS011;64651;47.540;19.088;2024-03-22T07:55:23;23.65;;;13.10;;
75971;SDS011;64651;47.540;19.088;2024-03-22T08:00:24;24.13;;;13.53;;
75971;SDS011;64651;47.540;19.088;2024-03-22T08:05:29;23.17;;;13.32;;
75971;SDS011;64651;47.540;19.088;2024-03-22T08:10:30;25.70;;;14.00;;
75971;SDS011;64651;47.540;19.088;2024-03-22T08:15:31;27.40;;;13.82;;
75971;SDS011;64651;47.540;19.088;2024-03-22T08:20:33;27.42;;;13.60;;
75971;SDS011;64651;47.540;19.088;2024-03-22T08:25:35;25.20;;;12.97;;
75971;SDS011;64651;47.540;19.088;2024-03-22T08:30:37;27.45;;;14.63;;
75971;SDS011;64651;47.540;19.088;2024-03-22T08:35:39;24.97;;;13.90;;
75971;SDS011;64651;47.540;19.088;2024-03-22T08:40:40;23.42;;;12.40;;
75971;SDS011;64651;47.540;19.088;2024-03-22T08:45:41;26.17;;;14.25;;
75971;SDS011;64651;47.540;19.088;2024-03-22T08:50:43;24.53;;;13.67;;
75971;SDS011;64651;47.540;19.088;2024-03-22T08:55:45;25.05;;;14.38;;
75971;SDS011;64651;47.540;19.088;2024-03-22T09:00:47;25.57;;;14.53;;
75971;SDS011;64651;47.540;19.088;2024-03-22T09:05:52;24.40;;;14.43;;
75971;SDS011;64651;47.540;19.088;2024-03-22T09:10:54;21.48;;;13.98;;
75971;SDS011;64651;47.540;19.088;2024-03-22T09:15:58;23.00;;;14.03;;
75971;SDS011;64651;47.540;19.088;2024-03-22T09:21:00;23.58;;;14.55;;
75971;SDS011;64651;47.540;19.088;2024-03-22T09:26:01;24.90;;;14.37;;
75971;SDS011;64651;47.540;19.088;2024-03-22T09:31:03;25.37;;;15.05;;
75971;SDS011;64651;47.540;19.088;2024-03-22T09:36:06;24.63;;;14.48;;
75971;SDS011;64651;47.540;19.088;2024-03-22T09:41:08;22.20;;;13.83;;
75971;SDS011;64651;47.540;19.088;2024-03-22T09:46:09;25.48;;;15.38;;
75971;SDS011;64651;47.540;19.088;2024-03-22T09:51:12;22.37;;;13.83;;
75971;SDS011;64651;47.540;19.088;2024-03-22T09:56:14;25.83;;;15.52;;
75971;SDS011;64651;47.540;19.088;2024-03-22T10:01:17;21.98;;;15.00;;
75971;SDS011;64651;47.540;19.088;2024-03-22T10:06:19;24.53;;;14.70;;
75971;SDS011;64651;47.540;19.088;2024-03-22T10:11:20;23.87;;;15.30;;
75971;SDS011;64651;47.540;19.088;2024-03-22T10:16:21;23.87;;;15.10;;
75971;SDS011;64651;47.540;19.088;2024-03-22T10:21:23;25.75;;;15.38;;
75971;SDS011;64651;47.540;19.088;2024-03-22T10:26:24;22.98;;;15.13;;
75971;SDS011;64651;47.540;19.088;2024-03-22T10:31:26;23.97;;;14.20;;
75971;SDS011;64651;47.540;19.088;2024-03-22T10:36:28;21.90;;;14.45;;
75971;SDS011;64651;47.540;19.088;2024-03-22T10:41:30;21.33;;;13.40;;
75971;SDS011;64651;47.540;19.088;2024-03-22T10:46:32;21.77;;;13.32;;
75971;SDS011;64651;47.540;19.088;2024-03-22T10:51:34;21.45;;;13.90;;
75971;SDS011;64651;47.540;19.088;2024-03-22T10:56:36;19.60;;;12.90;;
75971;SDS011;64651;47.540;19.088;2024-03-22T11:01:38;19.67;;;13.35;;
75971;SDS011;64651;47.540;19.088;2024-03-22T11:06:39;18.70;;;11.47;;
75971;SDS011;64651;47.540;19.088;2024-03-22T11:11:41;18.95;;;12.63;;
75971;SDS011;64651;47.540;19.088;2024-03-22T11:16:43;19.23;;;12.37;;
75971;SDS011;64651;47.540;19.088;2024-03-22T11:21:45;20.50;;;13.20;;
75971;SDS011;64651;47.540;19.088;2024-03-22T11:26:46;22.70;;;13.48;;
75971;SDS011;64651;47.540;19.088;2024-03-22T11:31:47;22.57;;;13.03;;
75971;SDS011;64651;47.540;19.088;2024-03-22T11:36:49;23.23;;;14.63;;
75971;SDS011;64651;47.540;19.088;2024-03-22T11:41:51;18.23;;;12.40;;
75971;SDS011;64651;47.540;19.088;2024-03-22T11:46:53;18.53;;;11.50;;
75971;SDS011;64651;47.540;19.088;2024-03-22T11:51:55;19.33;;;13.48;;
75971;SDS011;64651;47.540;19.088;2024-03-22T11:56:57;16.00;;;10.87;;
75971;SDS011;64651;47.540;19.088;2024-03-22T12:01:58;18.10;;;11.10;;
75971;SDS011;64651;47.540;19.088;2024-03-22T12:07:00;17.08;;;10.10;;
75971;SDS011;64651;47.540;19.088;2024-03-22T12:12:01;16.20;;;10.37;;
75971;SDS011;64651;47.540;19.088;2024-03-22T12:17:05;16.12;;;10.65;;
75971;SDS011;64651;47.540;19.088;2024-03-22T12:22:07;16.67;;;10.23;;
75971;SDS011;64651;47.540;19.088;2024-03-22T12:27:08;17.55;;;11.00;;
75971;SDS011;64651;47.540;19.088;2024-03-22T12:32:09;16.58;;;11.23;;
75971;SDS011;64651;47.540;19.088;2024-03-22T12:37:11;18.97;;;10.87;;
75971;SDS011;64651;47.540;19.088;2024-03-22T12:42:12;19.58;;;11.35;;
75971;SDS011;64651;47.540;19.088;2024-03-22T12:47:13;19.13;;;11.43;;
75971;SDS011;64651;47.540;19.088;2024-03-22T12:52:14;17.25;;;11.02;;
75971;SDS011;64651;47.540;19.088;2024-03-22T12:57:16;19.35;;;11.07;;
75971;SDS011;64651;47.540;19.088;2024-03-22T13:02:17;18.47;;;10.63;;
75971;SDS011;64651;47.540;19.088;2024-03-22T13:07:18;27.50;;;14.55;;
75971;SDS011;64651;47.540;19.088;2024-03-22T13:12:19;17.67;;;10.93;;
75971;SDS011;64651;47.540;19.088;2024-03-22T13:17:20;18.85;;;10.70;;
75971;SDS011;64651;47.540;19.088;2024-03-22T13:22:22;19.08;;;10.93;;
75971;SDS011;64651;47.540;19.088;2024-03-22T13:27:23;16.63;;;10.40;;
75971;SDS011;64651;47.540;19.088;2024-03-22T13:32:27;18.23;;;10.60;;
75971;SDS011;64651;47.540;19.088;2024-03-22T13:37:28;18.83;;;10.97;;
75971;SDS011;64651;47.540;19.088;2024-03-22T13:42:29;18.60;;;10.90;;
75971;SDS011;64651;47.540;19.088;2024-03-22T13:47:30;16.12;;;10.77;;
75971;SDS011;64651;47.540;19.088;2024-03-22T13:52:31;16.87;;;11.10;;
75971;SDS011;64651;47.540;19.088;2024-03-22T13:57:33;17.10;;;10.88;;
75971;SDS011;64651;47.540;19.088;2024-03-22T14:02:34;17.80;;;12.27;;
75971;SDS011;64651;47.540;19.088;2024-03-22T14:07:35;19.12;;;10.73;;
75971;SDS011;64651;47.540;19.088;2024-03-22T14:12:41;16.50;;;10.32;;
75971;SDS011;64651;47.540;19.088;2024-03-22T14:17:43;14.07;;;8.90;;
75971;SDS011;64651;47.540;19.088;2024-03-22T14:22:44;14.40;;;9.00;;
75971;SDS011;64651;47.540;19.088;2024-03-22T14:27:46;13.90;;;9.13;;
75971;SDS011;64651;47.540;19.088;2024-03-22T14:32:47;14.10;;;9.40;;
75971;SDS011;64651;47.540;19.088;2024-03-22T14:37:49;13.38;;;9.07;;
75971;SDS011;64651;47.540;19.088;2024-03-22T14:42:50;13.57;;;9.07;;
75971;SDS011;64651;47.540;19.088;2024-03-22T14:47:51;16.12;;;11.52;;
75971;SDS011;64651;47.540;19.088;2024-03-22T14:52:52;14.87;;;9.80;;
75971;SDS011;64651;47.540;19.088;2024-03-22T14:57:53;13.80;;;8.85;;
75971;SDS011;64651;47.540;19.088;2024-03-22T15:02:55;13.02;;;8.75;;
75971;SDS011;64651;47.540;19.088;2024-03-22T15:07:57;13.47;;;8.23;;
75971;SDS011;64651;47.540;19.088;2024-03-22T15:13:01;14.07;;;8.77;;
75971;SDS011;64651;47.540;19.088;2024-03-22T15:18:02;14.50;;;8.93;;
75971;SDS011;64651;47.540;19.088;2024-03-22T15:23:05;13.00;;;7.87;;
75971;SDS011;64651;47.540;19.088;2024-03-22T15:28:06;13.57;;;8.57;;
75971;SDS011;64651;47.540;19.088;2024-03-22T15:33:07;12.17;;;7.07;;
75971;SDS011;64651;47.540;19.088;2024-03-22T15:38:09;12.80;;;6.87;;
75971;SDS011;64651;47.540;19.088;2024-03-22T15:43:11;10.70;;;6.07;;
75971;SDS011;64651;47.540;19.088;2024-03-22T15:48:12;11.12;;;6.30;;
75971;SDS011;64651;47.540;19.088;2024-03-22T15:53:14;11.60;;;6.12;;
75971;SDS011;64651;47.540;19.088;2024-03-22T15:58:15;12.50;;;8.10;;
75971;SDS011;64651;47.540;19.088;2024-03-22T16:03:17;10.98;;;6.40;;
75971;SDS011;64651;47.540;19.088;2024-03-22T16:08:18;14.60;;;8.90;;
75971;SDS011;64651;47.540;19.088;2024-03-22T16:13:20;15.25;;;7.50;;
75971;SDS011;64651;47.540;19.088;2024-03-22T16:18:23;14.55;;;7.30;;
75971;SDS011;64651;47.540;19.088;2024-03-22T16:23:24;12.60;;;7.13;;
75971;SDS011;64651;47.540;19.088;2024-03-22T16:28:25;13.48;;;7.70;;
75971;SDS011;64651;47.540;19.088;2024-03-22T16:33:27;14.70;;;6.80;;
75971;SDS011;64651;47.540;19.088;2024-03-22T16:38:30;11.50;;;6.43;;
75971;SDS011;64651;47.540;19.088;2024-03-22T16:43:31;12.70;;;6.12;;
75971;SDS011;64651;47.540;19.088;2024-03-22T16:48:34;11.40;;;5.27;;
75971;SDS011;64651;47.540;19.088;2024-03-22T16:53:35;15.90;;;5.85;;
75971;SDS011;64651;47.540;19.088;2024-03-22T16:58:37;11.77;;;5.47;;
75971;SDS011;64651;47.540;19.088;2024-03-22T17:03:38;11.68;;;5.40;;
75971;SDS011;64651;47.540;19.088;2024-03-22T17:08:39;11.77;;;5.65;;
75971;SDS011;64651;47.540;19.088;2024-03-22T17:13:40;11.40;;;5.30;;
75971;SDS011;64651;47.540;19.088;2024-03-22T17:18:42;11.80;;;5.30;;
75971;SDS011;64651;47.540;19.088;2024-03-22T17:23:43;11.93;;;5.00;;
75971;SDS011;64651;47.540;19.088;2024-03-22T17:28:44;11.52;;;5.43;;
75971;SDS011;64651;47.540;19.088;2024-03-22T17:33:46;15.02;;;5.57;;
75971;SDS011;64651;47.540;19.088;2024-03-22T17:38:48;12.77;;;5.47;;
75971;SDS011;64651;47.540;19.088;2024-03-22T17:43:49;13.73;;;6.05;;
75971;SDS011;64651;47.540;19.088;2024-03-22T17:48:53;14.17;;;5.40;;
75971;SDS011;64651;47.540;19.088;2024-03-22T17:53:54;13.60;;;5.80;;
75971;SDS011;64651;47.540;19.088;2024-03-22T17:58:55;13.55;;;5.80;;
75971;SDS011;64651;47.540;19.088;2024-03-22T18:03:57;13.93;;;5.63;;
75971;SDS011;64651;47.540;19.088;2024-03-22T18:08:58;16.48;;;7.30;;
75971;SDS011;64651;47.540;19.088;2024-03-22T18:13:59;13.27;;;5.87;;
75971;SDS011;64651;47.540;19.088;2024-03-22T18:19:01;11.88;;;5.85;;
75971;SDS011;64651;47.540;19.088;2024-03-22T18:24:02;16.00;;;7.22;;
75971;SDS011;64651;47.540;19.088;2024-03-22T18:29:05;15.77;;;6.73;;
75971;SDS011;64651;47.540;19.088;2024-03-22T18:34:06;13.25;;;6.32;;
75971;SDS011;64651;47.540;19.088;2024-03-22T18:39:08;13.90;;;6.03;;
75971;SDS011;64651;47.540;19.088;2024-03-22T18:44:09;14.30;;;5.97;;
75971;SDS011;64651;47.540;19.088;2024-03-22T18:49:11;12.60;;;6.00;;
75971;SDS011;64651;47.540;19.088;2024-03-22T18:54:12;12.47;;;5.63;;
75971;SDS011;64651;47.540;19.088;2024-03-22T18:59:15;16.02;;;6.20;;
75971;SDS011;64651;47.540;19.088;2024-03-22T19:04:16;12.67;;;5.87;;
75971;SDS011;64651;47.540;19.088;2024-03-22T19:09:17;14.30;;;6.50;;
75971;SDS011;64651;47.540;19.088;2024-03-22T19:14:18;12.70;;;5.68;;
75971;SDS011;64651;47.540;19.088;2024-03-22T19:19:20;14.17;;;6.00;;
75971;SDS011;64651;47.540;19.088;2024-03-22T19:24:21;13.65;;;6.05;;
75971;SDS011;64651;47.540;19.088;2024-03-22T19:29:23;13.33;;;6.13;;
75971;SDS011;64651;47.540;19.088;2024-03-22T19:34:24;18.55;;;6.30;;
75971;SDS011;64651;47.540;19.088;2024-03-22T19:39:25;14.50;;;6.47;;
75971;SDS011;64651;47.540;19.088;2024-03-22T19:44:27;13.40;;;6.03;;
75971;SDS011;64651;47.540;19.088;2024-03-22T19:49:31;15.00;;;6.28;;
75971;SDS011;64651;47.540;19.088;2024-03-22T19:54:34;13.87;;;5.77;;
75971;SDS011;64651;47.540;19.088;2024-03-22T19:59:35;17.40;;;5.87;;
75971;SDS011;64651;47.540;19.088;2024-03-22T20:04:37;13.80;;;5.97;;
75971;SDS011;64651;47.540;19.088;2024-03-22T20:09:38;14.67;;;6.70;;
75971;SDS011;64651;47.540;19.088;2024-03-22T20:14:39;14.68;;;7.15;;
75971;SDS011;64651;47.540;19.088;2024-03-22T20:19:40;14.27;;;6.40;;
75971;SDS011;64651;47.540;19.088;2024-03-22T20:24:42;14.38;;;6.00;;
75971;SDS011;64651;47.540;19.088;2024-03-22T20:29:43;13.35;;;6.25;;
75971;SDS011;64651;47.540;19.088;2024-03-22T20:34:44;13.70;;;6.17;;
